Tweed New Haven Airport New Haven US
ICAO: KHVN
IATA: HVN
Category: Medium
Scheduled Services: Yes

Elevation: 12 ft
TransAlt. 18000 ft.

Airport Communications:
NEW YORK APP/DEP:124.075
ATIS:133.65
CTAF:124.8
GND:121.7
BRIDGEPORT RDO:109.8
NEW HAVEN TWR:124.8
UNICOM:122.95

KHVN Zoom In..

If you have problems with the map follow the link
https://www.worldairports.se/pages/airport.php?
ICAO=KHVN

Runways:

(A) RW 02 length 5600 ft width 150 ft
ILS 109.10 / hdg 16

(B) RW 14 length 3626 ft width 100 ft
---- / hdg 144

(C) RW 20 length 5600 ft width 150 ft
---- / hdg 196

(D) RW 32 length 3626 ft width 100 ft
---- / hdg 324

Location; KHVN
Day. 22 / Time. 10.53 Zulu
* Altimeter: 30.21
* Temperature: 04° c. 39.2°f.
* Wind from: VRB° Speed 04 kn.
Dewpoint: -01° c.
Visibility: 10 Statute Miles.
Clouds: Clear (automated report).

KHVN 221053Z VRB04KT 10SM CLR 04/M01 A3021 RMK AO2 SLP228 T00391011


Wind From VRB°
Speed 04 kn.

 
 
jpsmedia.com for Web Design worldairports.se 2018   terms of use